createdAt,value
2024-02-16T00:01:15.080Z,97465.00
2024-02-16T00:03:42.683Z,97469.53
2024-02-16T00:06:10.386Z,97471.41
2024-02-16T00:08:40.038Z,97471.22
2024-02-16T00:11:07.757Z,97471.22
2024-02-16T00:13:35.409Z,97477.69
2024-02-16T00:16:03.181Z,97472.91
2024-02-16T00:18:31.086Z,97467.72
2024-02-16T00:20:58.848Z,97473.75
2024-02-16T00:23:26.534Z,97468.75
2024-02-16T00:25:55.620Z,97473.16
2024-02-16T00:28:23.212Z,97478.78
2024-02-16T00:30:50.839Z,97477.56
2024-02-16T00:33:20.181Z,97486.34
2024-02-16T00:35:50.275Z,97490.53
2024-02-16T00:38:17.974Z,97486.81
2024-02-16T00:40:45.828Z,97479.69
2024-02-16T00:43:15.199Z,97473.63
2024-02-16T00:45:45.493Z,97470.94
2024-02-16T00:48:13.471Z,97473.03
2024-02-16T00:50:43.826Z,97476.16
2024-02-16T00:53:11.973Z,97470.34
2024-02-16T00:55:42.739Z,97477.41
2024-02-16T00:58:10.460Z,97473.03
2024-02-16T01:00:39.642Z,97470.75
2024-02-16T01:03:07.397Z,97476.59
2024-02-16T01:05:36.701Z,97469.72
2024-02-16T01:08:04.942Z,97478.91
2024-02-16T01:10:32.498Z,97478.72
2024-02-16T01:13:00.157Z,97479.13
2024-02-16T01:15:28.256Z,97478.69
2024-02-16T01:17:57.443Z,97477.00
2024-02-16T01:20:25.203Z,97479.50
2024-02-16T01:22:53.509Z,97479.31
2024-02-16T01:25:21.434Z,97481.38
2024-02-16T01:27:49.229Z,97477.00
2024-02-16T01:30:17.004Z,97478.47
2024-02-16T01:32:44.601Z,97474.94
2024-02-16T01:35:15.771Z,97476.81
2024-02-16T01:37:43.791Z,97475.97
2024-02-16T01:40:18.829Z,97487.03
2024-02-16T01:42:48.155Z,97485.56
2024-02-16T01:45:17.502Z,97486.19
2024-02-16T01:47:48.069Z,97478.69
2024-02-16T01:50:18.828Z,97485.13
2024-02-16T01:52:47.826Z,97485.97
2024-02-16T01:55:16.786Z,97485.16
2024-02-16T01:57:45.596Z,97486.38
2024-02-16T02:00:16.357Z,97489.31
2024-02-16T02:02:47.563Z,97478.25
2024-02-16T02:05:16.647Z,97491.94
2024-02-16T02:07:46.021Z,97495.69
2024-02-16T02:10:14.114Z,97481.53
2024-02-16T02:12:43.727Z,97498.78
2024-02-16T02:15:13.177Z,97487.31
2024-02-16T02:17:41.081Z,97483.94
2024-02-16T02:20:12.298Z,97472.03
2024-02-16T02:22:41.695Z,97484.50
2024-02-16T02:25:12.160Z,97489.81
2024-02-16T02:27:39.965Z,97490.00
2024-02-16T02:30:08.857Z,97476.88
2024-02-16T02:32:36.502Z,97474.59
2024-02-16T02:35:05.402Z,97473.50
2024-02-16T02:37:32.987Z,97477.25
2024-02-16T02:40:01.917Z,97471.63
2024-02-16T02:42:29.827Z,97471.84
2024-02-16T02:44:57.525Z,97460.00
2024-02-16T02:47:25.139Z,97453.94
2024-02-16T02:49:53.010Z,97463.31
2024-02-16T02:52:22.619Z,97467.47
2024-02-16T02:54:50.234Z,97469.31
2024-02-16T02:57:19.296Z,97454.13
2024-02-16T02:59:47.028Z,97463.91
2024-02-16T03:02:14.575Z,97466.44
2024-02-16T03:04:42.081Z,97456.88
2024-02-16T03:07:09.633Z,97452.94
2024-02-16T03:09:37.252Z,97451.69
2024-02-16T03:12:05.827Z,97449.81
2024-02-16T03:14:35.064Z,97448.38
2024-02-16T03:17:02.906Z,97447.78
2024-02-16T03:19:30.749Z,97448.59
2024-02-16T03:21:58.758Z,97445.91
2024-02-16T03:24:26.316Z,97449.44
2024-02-16T03:26:53.926Z,97442.38
2024-02-16T03:29:21.560Z,97455.28
2024-02-16T03:31:51.248Z,97455.09
2024-02-16T03:34:19.377Z,97455.69
2024-02-16T03:36:47.030Z,97459.25
2024-02-16T03:39:14.702Z,97465.69
2024-02-16T03:41:42.262Z,97470.69
2024-02-16T03:44:09.811Z,97463.81
2024-02-16T03:46:38.726Z,97466.50
2024-02-16T03:49:07.982Z,97477.13
2024-02-16T03:51:35.751Z,97481.53
2024-02-16T03:54:05.243Z,97469.88
2024-02-16T03:56:32.954Z,97470.28
2024-02-16T03:59:00.576Z,97477.38
2024-02-16T04:01:28.185Z,97474.66
2024-02-16T04:03:55.893Z,97482.41
2024-02-16T04:06:25.059Z,97479.22
2024-02-16T04:08:52.709Z,97475.09
2024-02-16T04:11:20.488Z,97483.00
2024-02-16T04:13:48.146Z,97492.59
2024-02-16T04:16:15.704Z,97481.78
2024-02-16T04:18:43.480Z,97489.47
2024-02-16T04:21:11.151Z,97484.50
2024-02-16T04:23:40.254Z,97497.56
2024-02-16T04:26:08.121Z,97491.31
2024-02-16T04:28:35.851Z,97495.09
2024-02-16T04:31:03.669Z,97492.56
2024-02-16T04:33:31.374Z,97495.47
2024-02-16T04:35:59.205Z,97483.63
2024-02-16T04:38:26.829Z,97484.66
2024-02-16T04:40:55.898Z,97486.09
2024-02-16T04:43:23.463Z,97486.75
2024-02-16T04:45:51.041Z,97477.78
2024-02-16T04:48:18.744Z,97474.28
2024-02-16T04:50:46.392Z,97478.25
2024-02-16T04:53:13.969Z,97481.16
2024-02-16T04:55:41.547Z,97483.69
2024-02-16T04:58:10.967Z,97482.25
2024-02-16T05:00:39.081Z,97470.56
2024-02-16T05:03:07.021Z,97472.28
2024-02-16T05:05:34.700Z,97483.31
2024-02-16T05:08:02.439Z,97486.69
2024-02-16T05:10:30.036Z,97487.31
2024-02-16T05:12:59.386Z,97496.28
2024-02-16T05:15:29.085Z,97488.59
2024-02-16T05:17:56.816Z,97489.44
2024-02-16T05:20:24.941Z,97488.38
2024-02-16T05:22:52.742Z,97492.75
2024-02-16T05:25:20.541Z,97492.94
2024-02-16T05:27:50.915Z,97488.19
2024-02-16T05:30:18.568Z,97488.81
2024-02-16T05:32:47.726Z,97485.28
2024-02-16T05:35:17.419Z,97488.41
2024-02-16T05:37:48.689Z,97482.78
2024-02-16T05:40:23.274Z,97488.84
2024-02-16T05:42:52.512Z,97481.34
2024-02-16T05:45:20.577Z,97488.03
2024-02-16T05:47:50.440Z,97487.59
2024-02-16T05:50:18.730Z,97483.59
2024-02-16T05:52:47.048Z,97487.53
2024-02-16T05:55:15.261Z,97476.06
2024-02-16T05:57:43.015Z,97485.44
2024-02-16T06:00:12.043Z,97493.56
2024-02-16T06:02:39.844Z,97496.06
2024-02-16T06:05:09.364Z,97488.97
2024-02-16T06:07:39.333Z,97487.56
2024-02-16T06:10:11.888Z,97489.66
2024-02-16T06:12:40.861Z,97501.56
2024-02-16T06:15:09.186Z,97502.00
2024-02-16T06:17:39.785Z,97503.44
2024-02-16T06:20:12.893Z,97512.81
2024-02-16T06:22:40.616Z,97515.28
2024-02-16T06:25:09.186Z,97516.50
2024-02-16T06:27:37.314Z,97515.25
2024-02-16T06:30:05.874Z,97528.38
2024-02-16T06:32:33.700Z,97528.16
2024-02-16T06:35:01.354Z,97544.41
2024-02-16T06:37:30.359Z,97539.41
2024-02-16T06:39:57.926Z,97537.31
2024-02-16T06:42:25.670Z,97539.56
2024-02-16T06:44:53.396Z,97559.34
2024-02-16T06:47:21.796Z,97553.31
2024-02-16T06:49:49.553Z,97558.03
2024-02-16T06:52:17.187Z,97558.47
2024-02-16T06:54:46.724Z,97560.94
2024-02-16T06:57:14.500Z,97566.16
2024-02-16T06:59:42.716Z,97564.66
2024-02-16T07:02:12.188Z,97572.78
2024-02-16T07:04:41.053Z,97569.03
2024-02-16T07:07:09.539Z,97576.53
2024-02-16T07:09:37.814Z,97572.34
2024-02-16T07:12:08.168Z,97579.63
2024-02-16T07:14:36.512Z,97575.25
2024-02-16T07:17:04.643Z,97576.53
2024-02-16T07:19:32.455Z,97576.31
2024-02-16T07:22:00.187Z,97580.91
2024-02-16T07:24:28.755Z,97581.09
2024-02-16T07:26:56.377Z,97574.47
2024-02-16T07:29:25.733Z,97572.78
2024-02-16T07:31:53.853Z,97574.69
2024-02-16T07:34:21.536Z,97572.88
2024-02-16T07:36:49.198Z,97576.81
2024-02-16T07:39:17.196Z,97577.06
2024-02-16T07:41:44.911Z,97576.88
2024-02-16T07:44:12.758Z,97587.72
2024-02-16T07:46:44.858Z,97586.56
2024-02-16T07:49:12.804Z,97586.63
2024-02-16T07:51:41.344Z,97586.66
2024-02-16T07:54:11.702Z,97586.91
2024-02-16T07:56:39.467Z,97586.91
2024-02-16T07:59:07.673Z,97592.38
2024-02-16T08:01:35.317Z,97598.16
2024-02-16T08:04:06.627Z,97592.34
2024-02-16T08:06:35.273Z,97589.81
2024-02-16T08:09:03.395Z,97593.97
2024-02-16T08:11:31.302Z,97598.56
2024-02-16T08:14:01.617Z,97590.59
2024-02-16T08:16:29.533Z,97596.03
2024-02-16T08:18:57.378Z,97599.97
2024-02-16T08:21:26.670Z,97604.13
2024-02-16T08:23:54.363Z,97598.50
2024-02-16T08:26:22.527Z,97596.19
2024-02-16T08:28:50.206Z,97602.88
2024-02-16T08:31:21.554Z,97596.38
2024-02-16T08:33:49.425Z,97592.81
2024-02-16T08:36:17.306Z,97592.59
2024-02-16T08:38:46.390Z,97595.88
2024-02-16T08:41:14.109Z,97598.13
2024-02-16T08:43:41.756Z,97595.41
2024-02-16T08:46:09.386Z,97604.56
2024-02-16T08:48:37.418Z,97595.53
2024-02-16T08:51:05.389Z,97598.81
2024-02-16T08:53:33.091Z,97609.47
2024-02-16T08:56:02.067Z,97596.63
2024-02-16T08:58:29.705Z,97603.72
2024-02-16T09:00:57.463Z,97607.22
2024-02-16T09:03:25.696Z,97609.06
2024-02-16T09:05:53.631Z,97600.84
2024-02-16T09:08:21.411Z,97602.47
2024-02-16T09:10:49.106Z,97610.13
2024-02-16T09:13:25.643Z,97591.88
2024-02-16T09:16:01.876Z,97603.75
2024-02-16T09:18:29.432Z,97604.75
2024-02-16T09:20:57.134Z,97605.75
2024-02-16T09:23:24.881Z,97609.47
2024-02-16T09:25:52.548Z,97610.06
2024-02-16T09:28:26.592Z,97618.44
2024-02-16T09:30:58.209Z,97620.25
2024-02-16T09:33:28.269Z,97614.38
2024-02-16T09:35:56.289Z,97611.97
2024-02-16T09:38:24.366Z,97622.56
2024-02-16T09:40:52.204Z,97623.97
2024-02-16T09:43:28.973Z,97620.91
2024-02-16T09:45:57.176Z,97622.06
2024-02-16T09:48:28.301Z,97624.72
2024-02-16T09:50:57.859Z,97620.25
2024-02-16T09:53:28.737Z,97631.38
2024-02-16T09:55:56.825Z,97625.97
2024-02-16T09:58:25.037Z,97635.28
2024-02-16T10:00:55.957Z,97640.09
2024-02-16T10:03:26.047Z,97636.38
2024-02-16T10:05:56.814Z,97639.75
2024-02-16T10:08:24.598Z,97644.78
2024-02-16T10:11:01.805Z,97650.16
2024-02-16T10:13:31.908Z,97653.50
2024-02-16T10:16:10.113Z,97653.16
2024-02-16T10:18:39.082Z,97654.34
2024-02-16T10:21:06.977Z,97646.53
2024-02-16T10:23:43.487Z,97662.94
2024-02-16T10:26:12.043Z,97663.16
2024-02-16T10:28:40.214Z,97665.16
2024-02-16T10:31:09.448Z,97664.72
2024-02-16T10:33:38.293Z,97660.91
2024-02-16T10:36:09.353Z,97666.25
2024-02-16T10:38:38.300Z,97666.84
2024-02-16T10:41:07.565Z,97671.19
2024-02-16T10:43:35.767Z,97666.28
2024-02-16T10:46:04.936Z,97663.97
2024-02-16T10:48:34.260Z,97674.69
2024-02-16T10:51:03.677Z,97661.84
2024-02-16T10:53:33.945Z,97666.03
2024-02-16T10:56:02.682Z,97671.06
2024-02-16T10:58:30.783Z,97671.41
2024-02-16T11:00:59.091Z,97665.25
2024-02-16T11:03:29.099Z,97664.00
2024-02-16T11:06:00.164Z,97664.72
2024-02-16T11:08:29.215Z,97660.13
2024-02-16T11:11:01.945Z,97662.28
2024-02-16T11:13:34.130Z,97656.94
2024-02-16T11:16:04.201Z,97660.63
2024-02-16T11:18:33.414Z,97660.78
2024-02-16T11:21:03.798Z,97662.53
2024-02-16T11:23:32.504Z,97655.72
2024-02-16T11:26:04.272Z,97661.19
2024-02-16T11:28:36.126Z,97658.53
2024-02-16T11:31:04.322Z,97659.63
2024-02-16T11:33:32.611Z,97650.69
2024-02-16T11:36:01.963Z,97659.56
2024-02-16T11:38:32.129Z,97663.09
2024-02-16T11:41:01.320Z,97659.28
2024-02-16T11:43:28.989Z,97660.44
2024-02-16T11:45:56.996Z,97663.72
2024-02-16T11:48:26.457Z,97663.59
2024-02-16T11:51:01.152Z,97656.78
2024-02-16T11:53:29.200Z,97660.56
2024-02-16T11:55:59.160Z,97661.91
2024-02-16T11:58:27.406Z,97666.75
2024-02-16T12:00:55.217Z,97663.63
2024-02-16T12:03:24.614Z,97664.50
2024-02-16T12:05:52.867Z,97664.50
2024-02-16T12:08:21.241Z,97666.28
2024-02-16T12:10:50.240Z,97659.47
2024-02-16T12:13:20.315Z,97663.94
2024-02-16T12:15:48.864Z,97660.78
2024-02-16T12:18:23.407Z,97665.25
2024-02-16T12:21:00.203Z,97661.38
2024-02-16T12:23:29.082Z,97659.50
2024-02-16T12:25:56.715Z,97660.34
2024-02-16T12:28:27.406Z,97659.25
2024-02-16T12:30:55.256Z,97662.63
2024-02-16T12:33:23.501Z,97662.75
2024-02-16T12:35:51.662Z,97662.16
2024-02-16T12:38:20.678Z,97661.91
2024-02-16T12:40:48.409Z,97668.25
2024-02-16T12:43:16.138Z,97662.13
2024-02-16T12:45:45.315Z,97660.94
2024-02-16T12:48:15.844Z,97665.03
2024-02-16T12:50:43.675Z,97670.59
2024-02-16T12:53:11.653Z,97671.56
2024-02-16T12:55:39.193Z,97674.25
2024-02-16T12:58:06.981Z,97662.41
2024-02-16T13:00:34.891Z,97674.81
2024-02-16T13:03:05.603Z,97668.84
2024-02-16T13:05:34.188Z,97672.00
2024-02-16T13:08:02.069Z,97673.97
2024-02-16T13:10:29.708Z,97674.03
2024-02-16T13:12:57.471Z,97662.94
2024-02-16T13:15:28.731Z,97670.66
2024-02-16T13:17:57.580Z,97670.78
2024-02-16T13:20:26.869Z,97673.66
2024-02-16T13:22:54.580Z,97675.16
2024-02-16T13:25:22.641Z,97669.59
2024-02-16T13:27:50.442Z,97670.56
2024-02-16T13:30:24.536Z,97672.25
2024-02-16T13:32:52.316Z,97673.53
2024-02-16T13:35:21.685Z,97674.47
2024-02-16T13:37:51.270Z,97678.44
2024-02-16T13:40:19.677Z,97672.63
2024-02-16T13:42:47.505Z,97669.31
2024-02-16T13:45:15.207Z,97676.22
2024-02-16T13:47:42.798Z,97672.38
2024-02-16T13:50:10.883Z,97675.63
2024-02-16T13:52:38.887Z,97675.63
2024-02-16T13:55:09.464Z,97679.44
2024-02-16T13:57:37.276Z,97679.13
2024-02-16T14:00:06.420Z,97678.59
2024-02-16T14:02:40.418Z,97685.34
2024-02-16T14:05:08.225Z,97690.25
2024-02-16T14:07:43.265Z,97685.34
2024-02-16T14:10:19.789Z,97689.72
2024-02-16T14:12:48.313Z,97693.81
2024-02-16T14:15:17.249Z,97698.56
2024-02-16T14:17:45.271Z,97703.22
2024-02-16T14:20:13.211Z,97694.66
2024-02-16T14:22:40.927Z,97688.94
2024-02-16T14:25:11.796Z,97702.28
2024-02-16T14:27:41.804Z,97710.28
2024-02-16T14:30:10.688Z,97712.69
2024-02-16T14:32:38.427Z,97704.38
2024-02-16T14:35:07.238Z,97705.63
2024-02-16T14:37:35.111Z,97715.44
2024-02-16T14:40:04.625Z,97712.69
2024-02-16T14:42:32.251Z,97716.19
2024-02-16T14:45:01.501Z,97715.91
2024-02-16T14:47:29.212Z,97719.41
2024-02-16T14:49:56.933Z,97710.00
2024-02-16T14:52:24.741Z,97719.53
2024-02-16T14:54:52.418Z,97720.38
2024-02-16T14:57:21.748Z,97721.44
2024-02-16T14:59:50.368Z,97728.28
2024-02-16T15:02:22.238Z,97727.59
2024-02-16T15:04:49.898Z,97728.00
2024-02-16T15:07:18.004Z,97725.03
2024-02-16T15:09:45.675Z,97733.97
2024-02-16T15:12:13.442Z,97732.56
2024-02-16T15:14:41.064Z,97732.69
2024-02-16T15:17:09.195Z,97734.03
2024-02-16T15:19:38.085Z,97737.97
2024-02-16T15:22:05.779Z,97740.09
2024-02-16T15:24:33.551Z,97736.09
2024-02-16T15:27:02.051Z,97747.66
2024-02-16T15:29:29.744Z,97744.69
2024-02-16T15:31:57.673Z,97746.00
2024-02-16T15:34:25.465Z,97743.75
2024-02-16T15:36:56.156Z,97749.25
2024-02-16T15:39:23.838Z,97754.25
2024-02-16T15:41:53.177Z,97758.41
2024-02-16T15:44:20.824Z,97767.34
2024-02-16T15:46:48.529Z,97757.69
2024-02-16T15:49:16.221Z,97760.31
2024-02-16T15:51:43.937Z,97760.53
2024-02-16T15:54:13.863Z,97764.50
2024-02-16T15:56:41.636Z,97764.59
2024-02-16T15:59:09.257Z,97778.41
2024-02-16T16:01:37.035Z,97773.28
2024-02-16T16:04:05.215Z,97790.16
2024-02-16T16:06:33.688Z,97780.59
2024-02-16T16:09:01.514Z,97787.13
2024-02-16T16:11:31.802Z,97793.31
2024-02-16T16:13:59.394Z,97792.34
2024-02-16T16:16:27.103Z,97796.38
2024-02-16T16:18:56.566Z,97797.06
2024-02-16T16:21:24.783Z,97797.56
2024-02-16T16:23:52.288Z,97808.13
2024-02-16T16:26:25.629Z,97805.84
2024-02-16T16:28:54.732Z,97800.47
2024-02-16T16:31:22.337Z,97807.25
2024-02-16T16:33:50.471Z,97804.00
2024-02-16T16:36:18.312Z,97807.22
2024-02-16T16:38:46.055Z,97803.28
2024-02-16T16:41:13.749Z,97810.03
2024-02-16T16:43:41.288Z,97817.66
2024-02-16T16:46:10.211Z,97821.88
2024-02-16T16:48:38.041Z,97823.50
2024-02-16T16:51:06.262Z,97827.91
2024-02-16T16:53:34.106Z,97830.84
2024-02-16T16:56:01.911Z,97839.50
2024-02-16T16:58:29.916Z,97838.31
2024-02-16T17:00:57.858Z,97843.38
2024-02-16T17:03:27.154Z,97847.41
2024-02-16T17:05:55.113Z,97847.84
2024-02-16T17:08:22.833Z,97855.69
2024-02-16T17:10:50.618Z,97850.91
2024-02-16T17:13:19.557Z,97873.19
2024-02-16T17:15:47.467Z,97866.06
2024-02-16T17:18:15.618Z,97877.22
2024-02-16T17:20:44.686Z,97881.47
2024-02-16T17:23:12.299Z,97885.25
2024-02-16T17:25:40.154Z,97890.09
2024-02-16T17:28:07.855Z,97893.09
2024-02-16T17:30:35.981Z,97898.41
2024-02-16T17:33:04.332Z,97905.59
2024-02-16T17:35:32.072Z,97906.00
2024-02-16T17:38:01.406Z,97908.38
2024-02-16T17:40:29.234Z,97909.22
2024-02-16T17:42:59.619Z,97909.63
2024-02-16T17:45:27.377Z,97918.28
2024-02-16T17:47:55.169Z,97919.78
2024-02-16T17:50:23.162Z,97920.69
2024-02-16T17:52:50.899Z,97930.59
2024-02-16T17:55:19.972Z,97923.91
2024-02-16T17:57:47.667Z,97935.88
2024-02-16T18:00:16.423Z,97942.59
2024-02-16T18:02:46.942Z,97940.97
2024-02-16T18:05:17.196Z,97944.59
2024-02-16T18:07:45.001Z,97946.91
2024-02-16T18:10:12.986Z,97956.38
2024-02-16T18:12:42.191Z,97956.19
2024-02-16T18:15:10.561Z,97949.53
2024-02-16T18:17:38.133Z,97963.94
2024-02-16T18:20:08.382Z,97969.00
2024-02-16T18:22:37.348Z,97974.69
2024-02-16T18:25:05.879Z,97981.63
2024-02-16T18:27:33.602Z,97978.31
2024-02-16T18:30:02.750Z,97976.81
2024-02-16T18:32:30.750Z,97978.06
2024-02-16T18:34:58.835Z,97979.09
2024-02-16T18:37:26.623Z,97980.19
2024-02-16T18:39:54.328Z,97978.50
2024-02-16T18:42:22.250Z,97976.19
2024-02-16T18:44:51.611Z,97980.00
2024-02-16T18:47:20.705Z,97990.06
2024-02-16T18:49:49.685Z,97985.28
2024-02-16T18:52:17.694Z,97984.38
2024-02-16T18:54:45.359Z,97995.25
2024-02-16T18:57:13.297Z,97980.00
2024-02-16T18:59:41.181Z,97999.88
2024-02-16T19:02:08.803Z,98003.44
2024-02-16T19:04:38.130Z,98003.88
2024-02-16T19:07:06.092Z,97997.38
2024-02-16T19:09:34.046Z,98002.19
2024-02-16T19:12:01.865Z,98000.13
2024-02-16T19:14:29.770Z,98003.69
2024-02-16T19:16:57.360Z,98009.97
2024-02-16T19:19:26.516Z,97999.28
2024-02-16T19:21:57.774Z,98002.44
2024-02-16T19:24:33.284Z,98010.22
2024-02-16T19:27:07.882Z,98012.97
2024-02-16T19:29:35.914Z,98012.31
2024-02-16T19:32:04.072Z,98024.28
2024-02-16T19:34:31.931Z,98022.41
2024-02-16T19:37:01.558Z,98026.63
2024-02-16T19:39:29.504Z,98039.81
2024-02-16T19:41:59.550Z,98050.13
2024-02-16T19:44:28.984Z,98043.19
2024-02-16T19:46:56.618Z,98046.97
2024-02-16T19:49:24.685Z,98054.72
2024-02-16T19:51:52.676Z,98049.28
2024-02-16T19:54:21.869Z,98049.72
2024-02-16T19:56:49.565Z,98059.56
2024-02-16T19:59:17.698Z,98058.28
2024-02-16T20:01:45.575Z,98060.81
2024-02-16T20:04:13.434Z,98069.22
2024-02-16T20:06:41.126Z,98063.97
2024-02-16T20:09:08.834Z,98069.63
2024-02-16T20:11:38.165Z,98067.94
2024-02-16T20:14:05.935Z,98065.66
2024-02-16T20:16:35.377Z,98070.25
2024-02-16T20:19:03.361Z,98072.13
2024-02-16T20:21:34.461Z,98075.50
2024-02-16T20:24:02.365Z,98078.22
2024-02-16T20:26:32.348Z,98083.88
2024-02-16T20:29:03.748Z,98086.16
2024-02-16T20:31:31.524Z,98086.38
2024-02-16T20:33:59.481Z,98085.53
2024-02-16T20:36:27.404Z,98074.66
2024-02-16T20:38:55.626Z,98087.03
2024-02-16T20:41:23.170Z,98091.38
2024-02-16T20:43:50.853Z,98090.16
2024-02-16T20:46:19.832Z,98095.19
2024-02-16T20:48:47.426Z,98095.38
2024-02-16T20:51:15.181Z,98096.66
2024-02-16T20:53:42.869Z,98095.59
2024-02-16T20:56:11.900Z,98097.88
2024-02-16T20:58:39.814Z,98094.97
2024-02-16T21:01:07.615Z,98107.50
2024-02-16T21:03:38.066Z,98108.34
2024-02-16T21:06:06.528Z,98109.81
2024-02-16T21:08:34.180Z,98115.03
2024-02-16T21:11:01.858Z,98116.91
2024-02-16T21:13:29.516Z,98120.25
2024-02-16T21:15:57.624Z,98124.63
2024-02-16T21:18:25.297Z,98115.84
2024-02-16T21:20:55.034Z,98127.13
2024-02-16T21:23:22.623Z,98126.28
2024-02-16T21:25:50.240Z,98121.06
2024-02-16T21:28:18.511Z,98134.03
2024-02-16T21:30:46.207Z,98140.50
2024-02-16T21:33:16.229Z,98137.16
2024-02-16T21:35:44.077Z,98138.81
2024-02-16T21:38:14.086Z,98147.19
2024-02-16T21:40:43.667Z,98147.41
2024-02-16T21:43:11.199Z,98152.00
2024-02-16T21:45:38.867Z,98147.41
2024-02-16T21:48:09.159Z,98148.63
2024-02-16T21:50:37.226Z,98161.19
2024-02-16T21:53:05.222Z,98149.91
2024-02-16T21:55:34.240Z,98156.16
2024-02-16T21:58:02.501Z,98163.06
2024-02-16T22:00:30.258Z,98166.22
2024-02-16T22:02:58.687Z,98170.59
2024-02-16T22:05:26.493Z,98168.94
2024-02-16T22:07:54.240Z,98175.59
2024-02-16T22:10:21.884Z,98177.66
2024-02-16T22:12:51.016Z,98185.63
2024-02-16T22:15:18.744Z,98190.22
2024-02-16T22:17:46.322Z,98187.72
2024-02-16T22:20:13.913Z,98188.53
2024-02-16T22:22:41.530Z,98193.78
2024-02-16T22:25:09.440Z,98191.06
2024-02-16T22:27:37.532Z,98193.59
2024-02-16T22:30:07.962Z,98201.97
2024-02-16T22:32:35.722Z,98201.56
2024-02-16T22:35:03.402Z,98198.22
2024-02-16T22:37:31.938Z,98209.72
2024-02-16T22:39:59.566Z,98207.22
2024-02-16T22:42:27.383Z,98213.09
2024-02-16T22:44:54.972Z,98215.81
2024-02-16T22:47:23.935Z,98210.56
2024-02-16T22:49:51.768Z,98217.47
2024-02-16T22:52:20.227Z,98223.97
2024-02-16T22:54:47.852Z,98221.03
2024-02-16T22:57:15.477Z,98221.88
2024-02-16T22:59:43.269Z,98222.47
2024-02-16T23:02:11.256Z,98228.97
2024-02-16T23:04:44.707Z,98229.34
2024-02-16T23:07:12.455Z,98232.06
2024-02-16T23:09:40.276Z,98232.91
2024-02-16T23:12:08.364Z,98235.44
2024-02-16T23:14:36.320Z,98235.44
2024-02-16T23:17:04.011Z,98239.19
2024-02-16T23:19:31.832Z,98238.34
2024-02-16T23:22:00.867Z,98245.88
2024-02-16T23:24:28.417Z,98248.81
2024-02-16T23:26:55.967Z,98256.97
2024-02-16T23:29:23.557Z,98255.47
2024-02-16T23:31:51.331Z,98255.69
2024-02-16T23:34:19.107Z,98239.31
2024-02-16T23:36:48.144Z,98254.63
2024-02-16T23:39:17.110Z,98264.19
2024-02-16T23:41:44.686Z,98256.88
2024-02-16T23:44:12.305Z,98250.97
2024-02-16T23:46:40.005Z,98265.00
2024-02-16T23:49:07.928Z,98262.25
2024-02-16T23:51:35.588Z,98266.38
2024-02-16T23:54:03.412Z,98271.81
2024-02-16T23:56:32.456Z,98269.31
2024-02-16T23:59:00.007Z,98269.50
